sensor_id;sensor_type;location;lat;lon;timestamp;P1;durP1;ratioP1;P2;durP2;ratioP2
30519;SDS011;17300;50.374;8.006;2023-01-16T00:02:07;0.73;;;0.40;;
30519;SDS011;17300;50.374;8.006;2023-01-16T00:04:34;2.20;;;0.70;;
30519;SDS011;17300;50.374;8.006;2023-01-16T00:07:01;0.73;;;0.47;;
30519;SDS011;17300;50.374;8.006;2023-01-16T00:09:27;1.33;;;0.60;;
30519;SDS011;17300;50.374;8.006;2023-01-16T00:11:54;1.00;;;0.47;;
30519;SDS011;17300;50.374;8.006;2023-01-16T00:14:22;0.60;;;0.50;;
30519;SDS011;17300;50.374;8.006;2023-01-16T00:16:49;0.47;;;0.40;;
30519;SDS011;17300;50.374;8.006;2023-01-16T00:19:16;0.90;;;0.40;;
30519;SDS011;17300;50.374;8.006;2023-01-16T00:21:42;0.43;;;0.30;;
30519;SDS011;17300;50.374;8.006;2023-01-16T00:24:12;0.80;;;0.40;;
30519;SDS011;17300;50.374;8.006;2023-01-16T00:26:39;0.37;;;0.30;;
30519;SDS011;17300;50.374;8.006;2023-01-16T00:29:06;1.70;;;0.60;;
30519;SDS011;17300;50.374;8.006;2023-01-16T00:31:34;1.10;;;0.50;;
30519;SDS011;17300;50.374;8.006;2023-01-16T00:34:00;0.60;;;0.30;;
30519;SDS011;17300;50.374;8.006;2023-01-16T00:36:27;0.83;;;0.40;;
30519;SDS011;17300;50.374;8.006;2023-01-16T00:38:54;0.53;;;0.40;;
30519;SDS011;17300;50.374;8.006;2023-01-16T00:41:21;0.47;;;0.37;;
30519;SDS011;17300;50.374;8.006;2023-01-16T00:43:47;0.90;;;0.50;;
30519;SDS011;17300;50.374;8.006;2023-01-16T00:46:14;2.53;;;0.40;;
30519;SDS011;17300;50.374;8.006;2023-01-16T00:48:42;0.60;;;0.30;;
30519;SDS011;17300;50.374;8.006;2023-01-16T00:51:09;0.83;;;0.57;;
30519;SDS011;17300;50.374;8.006;2023-01-16T00:53:35;0.67;;;0.50;;
30519;SDS011;17300;50.374;8.006;2023-01-16T00:56:02;1.17;;;0.60;;
30519;SDS011;17300;50.374;8.006;2023-01-16T00:58:30;0.33;;;0.30;;
30519;SDS011;17300;50.374;8.006;2023-01-16T01:00:57;1.37;;;0.40;;
30519;SDS011;17300;50.374;8.006;2023-01-16T01:03:23;1.27;;;0.40;;
30519;SDS011;17300;50.374;8.006;2023-01-16T01:05:51;0.97;;;0.50;;
30519;SDS011;17300;50.374;8.006;2023-01-16T01:08:18;0.57;;;0.40;;
30519;SDS011;17300;50.374;8.006;2023-01-16T01:10:45;1.03;;;0.40;;
30519;SDS011;17300;50.374;8.006;2023-01-16T01:13:11;1.13;;;0.43;;
30519;SDS011;17300;50.374;8.006;2023-01-16T01:15:39;0.67;;;0.47;;
30519;SDS011;17300;50.374;8.006;2023-01-16T01:18:05;1.00;;;0.50;;
30519;SDS011;17300;50.374;8.006;2023-01-16T01:20:32;1.67;;;0.50;;
30519;SDS011;17300;50.374;8.006;2023-01-16T01:23:00;1.03;;;0.43;;
30519;SDS011;17300;50.374;8.006;2023-01-16T01:25:27;1.00;;;0.60;;
30519;SDS011;17300;50.374;8.006;2023-01-16T01:27:53;1.03;;;0.50;;
30519;SDS011;17300;50.374;8.006;2023-01-16T01:30:20;1.00;;;0.50;;
30519;SDS011;17300;50.374;8.006;2023-01-16T01:32:47;1.00;;;0.40;;
30519;SDS011;17300;50.374;8.006;2023-01-16T01:35:13;1.33;;;0.50;;
30519;SDS011;17300;50.374;8.006;2023-01-16T01:37:42;0.60;;;0.43;;
30519;SDS011;17300;50.374;8.006;2023-01-16T01:40:10;1.13;;;0.50;;
30519;SDS011;17300;50.374;8.006;2023-01-16T01:42:38;0.77;;;0.50;;
30519;SDS011;17300;50.374;8.006;2023-01-16T01:45:18;0.97;;;0.57;;
30519;SDS011;17300;50.374;8.006;2023-01-16T01:47:47;1.37;;;0.60;;
30519;SDS011;17300;50.374;8.006;2023-01-16T01:50:22;0.83;;;0.30;;
30519;SDS011;17300;50.374;8.006;2023-01-16T01:52:54;0.70;;;0.50;;
30519;SDS011;17300;50.374;8.006;2023-01-16T01:55:27;1.73;;;0.60;;
30519;SDS011;17300;50.374;8.006;2023-01-16T01:57:54;0.80;;;0.37;;
30519;SDS011;17300;50.374;8.006;2023-01-16T02:00:24;0.83;;;0.50;;
30519;SDS011;17300;50.374;8.006;2023-01-16T02:02:55;0.93;;;0.40;;
30519;SDS011;17300;50.374;8.006;2023-01-16T02:05:28;2.10;;;0.63;;
30519;SDS011;17300;50.374;8.006;2023-01-16T02:07:58;0.93;;;0.40;;
30519;SDS011;17300;50.374;8.006;2023-01-16T02:10:30;1.53;;;0.40;;
30519;SDS011;17300;50.374;8.006;2023-01-16T02:13:02;1.60;;;0.43;;
30519;SDS011;17300;50.374;8.006;2023-01-16T02:15:29;1.30;;;0.43;;
30519;SDS011;17300;50.374;8.006;2023-01-16T02:17:56;0.50;;;0.40;;
30519;SDS011;17300;50.374;8.006;2023-01-16T02:20:46;0.83;;;0.47;;
30519;SDS011;17300;50.374;8.006;2023-01-16T02:23:40;0.30;;;0.30;;
30519;SDS011;17300;50.374;8.006;2023-01-16T02:26:47;1.33;;;0.60;;
30519;SDS011;17300;50.374;8.006;2023-01-16T02:32:32;1.57;;;0.37;;
30519;SDS011;17300;50.374;8.006;2023-01-16T02:35:17;1.27;;;0.37;;
30519;SDS011;17300;50.374;8.006;2023-01-16T02:37:54;0.70;;;0.60;;
30519;SDS011;17300;50.374;8.006;2023-01-16T02:40:24;1.13;;;0.40;;
30519;SDS011;17300;50.374;8.006;2023-01-16T02:43:03;0.47;;;0.30;;
30519;SDS011;17300;50.374;8.006;2023-01-16T02:45:41;0.73;;;0.40;;
30519;SDS011;17300;50.374;8.006;2023-01-16T02:48:15;0.67;;;0.40;;
30519;SDS011;17300;50.374;8.006;2023-01-16T02:50:51;0.47;;;0.40;;
30519;SDS011;17300;50.374;8.006;2023-01-16T02:53:26;0.70;;;0.40;;
30519;SDS011;17300;50.374;8.006;2023-01-16T02:55:56;1.60;;;0.43;;
30519;SDS011;17300;50.374;8.006;2023-01-16T02:58:28;0.60;;;0.33;;
30519;SDS011;17300;50.374;8.006;2023-01-16T03:00:58;0.77;;;0.40;;
30519;SDS011;17300;50.374;8.006;2023-01-16T03:03:35;0.43;;;0.40;;
30519;SDS011;17300;50.374;8.006;2023-01-16T03:06:06;1.10;;;0.60;;
30519;SDS011;17300;50.374;8.006;2023-01-16T03:08:58;0.77;;;0.50;;
30519;SDS011;17300;50.374;8.006;2023-01-16T03:11:47;0.97;;;0.43;;
30519;SDS011;17300;50.374;8.006;2023-01-16T03:14:27;1.03;;;0.60;;
30519;SDS011;17300;50.374;8.006;2023-01-16T03:17:03;1.07;;;0.50;;
30519;SDS011;17300;50.374;8.006;2023-01-16T03:19:45;0.40;;;0.40;;
30519;SDS011;17300;50.374;8.006;2023-01-16T03:22:23;1.23;;;0.67;;
30519;SDS011;17300;50.374;8.006;2023-01-16T03:24:57;0.70;;;0.40;;
30519;SDS011;17300;50.374;8.006;2023-01-16T03:27:33;0.87;;;0.47;;
30519;SDS011;17300;50.374;8.006;2023-01-16T03:30:09;1.20;;;0.60;;
30519;SDS011;17300;50.374;8.006;2023-01-16T03:32:41;0.73;;;0.30;;
30519;SDS011;17300;50.374;8.006;2023-01-16T03:35:14;1.27;;;0.67;;
30519;SDS011;17300;50.374;8.006;2023-01-16T03:37:44;1.23;;;0.50;;
30519;SDS011;17300;50.374;8.006;2023-01-16T03:40:16;0.70;;;0.50;;
30519;SDS011;17300;50.374;8.006;2023-01-16T03:42:49;0.70;;;0.40;;
30519;SDS011;17300;50.374;8.006;2023-01-16T03:45:21;1.03;;;0.50;;
30519;SDS011;17300;50.374;8.006;2023-01-16T03:47:54;0.50;;;0.40;;
30519;SDS011;17300;50.374;8.006;2023-01-16T03:50:27;1.10;;;0.60;;
30519;SDS011;17300;50.374;8.006;2023-01-16T03:52:56;0.67;;;0.40;;
30519;SDS011;17300;50.374;8.006;2023-01-16T03:55:29;0.37;;;0.37;;
30519;SDS011;17300;50.374;8.006;2023-01-16T03:58:00;0.97;;;0.50;;
30519;SDS011;17300;50.374;8.006;2023-01-16T04:00:31;2.60;;;0.70;;
30519;SDS011;17300;50.374;8.006;2023-01-16T04:03:04;0.60;;;0.40;;
30519;SDS011;17300;50.374;8.006;2023-01-16T04:05:36;1.43;;;0.60;;
30519;SDS011;17300;50.374;8.006;2023-01-16T04:08:08;0.60;;;0.30;;
30519;SDS011;17300;50.374;8.006;2023-01-16T04:10:41;0.83;;;0.30;;
30519;SDS011;17300;50.374;8.006;2023-01-16T04:13:10;1.23;;;0.57;;
30519;SDS011;17300;50.374;8.006;2023-01-16T04:15:41;0.67;;;0.40;;
30519;SDS011;17300;50.374;8.006;2023-01-16T04:18:10;1.00;;;0.50;;
30519;SDS011;17300;50.374;8.006;2023-01-16T04:20:38;0.80;;;0.40;;
30519;SDS011;17300;50.374;8.006;2023-01-16T04:23:07;3.07;;;0.60;;
30519;SDS011;17300;50.374;8.006;2023-01-16T04:25:34;0.90;;;0.57;;
30519;SDS011;17300;50.374;8.006;2023-01-16T04:28:01;0.73;;;0.40;;
30519;SDS011;17300;50.374;8.006;2023-01-16T04:30:27;0.47;;;0.40;;
30519;SDS011;17300;50.374;8.006;2023-01-16T04:32:54;1.67;;;0.60;;
30519;SDS011;17300;50.374;8.006;2023-01-16T04:35:21;2.27;;;0.40;;
30519;SDS011;17300;50.374;8.006;2023-01-16T04:37:49;0.83;;;0.50;;
30519;SDS011;17300;50.374;8.006;2023-01-16T04:40:15;1.23;;;0.60;;
30519;SDS011;17300;50.374;8.006;2023-01-16T04:42:42;1.53;;;0.40;;
30519;SDS011;17300;50.374;8.006;2023-01-16T04:45:09;1.70;;;0.40;;
30519;SDS011;17300;50.374;8.006;2023-01-16T04:47:36;1.27;;;0.60;;
30519;SDS011;17300;50.374;8.006;2023-01-16T04:50:03;0.47;;;0.30;;
30519;SDS011;17300;50.374;8.006;2023-01-16T04:52:30;0.67;;;0.50;;
30519;SDS011;17300;50.374;8.006;2023-01-16T04:54:58;1.27;;;0.60;;
30519;SDS011;17300;50.374;8.006;2023-01-16T04:57:25;1.70;;;0.67;;
30519;SDS011;17300;50.374;8.006;2023-01-16T04:59:52;1.63;;;0.80;;
30519;SDS011;17300;50.374;8.006;2023-01-16T05:02:18;1.13;;;0.60;;
30519;SDS011;17300;50.374;8.006;2023-01-16T05:04:45;0.80;;;0.60;;
30519;SDS011;17300;50.374;8.006;2023-01-16T05:07:12;2.00;;;1.17;;
30519;SDS011;17300;50.374;8.006;2023-01-16T05:09:39;1.80;;;1.20;;
30519;SDS011;17300;50.374;8.006;2023-01-16T05:12:07;0.90;;;0.80;;
30519;SDS011;17300;50.374;8.006;2023-01-16T05:14:33;1.07;;;0.73;;
30519;SDS011;17300;50.374;8.006;2023-01-16T05:17:00;1.00;;;0.50;;
30519;SDS011;17300;50.374;8.006;2023-01-16T05:19:27;0.80;;;0.53;;
30519;SDS011;17300;50.374;8.006;2023-01-16T05:21:53;1.13;;;0.53;;
30519;SDS011;17300;50.374;8.006;2023-01-16T05:24:20;0.90;;;0.60;;
30519;SDS011;17300;50.374;8.006;2023-01-16T05:26:46;1.53;;;0.83;;
30519;SDS011;17300;50.374;8.006;2023-01-16T05:29:15;1.47;;;0.73;;
30519;SDS011;17300;50.374;8.006;2023-01-16T05:31:41;1.50;;;0.63;;
30519;SDS011;17300;50.374;8.006;2023-01-16T05:34:08;1.47;;;0.67;;
30519;SDS011;17300;50.374;8.006;2023-01-16T05:36:35;0.80;;;0.57;;
30519;SDS011;17300;50.374;8.006;2023-01-16T05:39:02;1.53;;;0.80;;
30519;SDS011;17300;50.374;8.006;2023-01-16T05:41:28;1.23;;;0.60;;
30519;SDS011;17300;50.374;8.006;2023-01-16T05:43:55;0.83;;;0.60;;
30519;SDS011;17300;50.374;8.006;2023-01-16T05:46:23;1.43;;;0.90;;
30519;SDS011;17300;50.374;8.006;2023-01-16T05:48:50;1.13;;;0.50;;
30519;SDS011;17300;50.374;8.006;2023-01-16T05:51:17;0.70;;;0.50;;
30519;SDS011;17300;50.374;8.006;2023-01-16T05:53:43;1.67;;;0.80;;
30519;SDS011;17300;50.374;8.006;2023-01-16T05:56:20;1.73;;;0.83;;
30519;SDS011;17300;50.374;8.006;2023-01-16T05:58:47;1.27;;;0.80;;
30519;SDS011;17300;50.374;8.006;2023-01-16T06:01:14;1.20;;;0.80;;
30519;SDS011;17300;50.374;8.006;2023-01-16T06:03:42;1.50;;;0.70;;
30519;SDS011;17300;50.374;8.006;2023-01-16T06:06:09;1.10;;;0.70;;
30519;SDS011;17300;50.374;8.006;2023-01-16T06:08:36;1.20;;;0.67;;
30519;SDS011;17300;50.374;8.006;2023-01-16T06:11:02;1.37;;;0.80;;
30519;SDS011;17300;50.374;8.006;2023-01-16T06:13:29;1.87;;;0.80;;
30519;SDS011;17300;50.374;8.006;2023-01-16T06:15:55;1.07;;;0.60;;
30519;SDS011;17300;50.374;8.006;2023-01-16T06:18:22;1.83;;;1.00;;
30519;SDS011;17300;50.374;8.006;2023-01-16T06:20:50;1.30;;;0.90;;
30519;SDS011;17300;50.374;8.006;2023-01-16T06:23:17;1.90;;;0.90;;
30519;SDS011;17300;50.374;8.006;2023-01-16T06:25:47;1.97;;;0.87;;
30519;SDS011;17300;50.374;8.006;2023-01-16T06:28:14;1.93;;;0.90;;
30519;SDS011;17300;50.374;8.006;2023-01-16T06:30:41;1.03;;;0.80;;
30519;SDS011;17300;50.374;8.006;2023-01-16T06:33:07;2.07;;;0.70;;
30519;SDS011;17300;50.374;8.006;2023-01-16T06:35:34;1.37;;;0.70;;
30519;SDS011;17300;50.374;8.006;2023-01-16T06:38:02;1.07;;;0.73;;
30519;SDS011;17300;50.374;8.006;2023-01-16T06:40:28;3.50;;;0.83;;
30519;SDS011;17300;50.374;8.006;2023-01-16T06:42:55;1.43;;;0.50;;
30519;SDS011;17300;50.374;8.006;2023-01-16T06:45:22;2.17;;;0.77;;
30519;SDS011;17300;50.374;8.006;2023-01-16T06:51:01;1.37;;;0.60;;
30519;SDS011;17300;50.374;8.006;2023-01-16T06:53:39;2.83;;;1.00;;
30519;SDS011;17300;50.374;8.006;2023-01-16T06:56:07;1.40;;;0.90;;
30519;SDS011;17300;50.374;8.006;2023-01-16T06:58:33;1.30;;;0.90;;
30519;SDS011;17300;50.374;8.006;2023-01-16T07:01:01;1.87;;;0.90;;
30519;SDS011;17300;50.374;8.006;2023-01-16T07:03:30;2.87;;;1.03;;
30519;SDS011;17300;50.374;8.006;2023-01-16T07:05:56;1.70;;;0.80;;
30519;SDS011;17300;50.374;8.006;2023-01-16T07:08:23;1.80;;;0.90;;
30519;SDS011;17300;50.374;8.006;2023-01-16T07:10:51;2.10;;;0.80;;
30519;SDS011;17300;50.374;8.006;2023-01-16T07:13:19;2.83;;;0.97;;
30519;SDS011;17300;50.374;8.006;2023-01-16T07:15:52;1.40;;;0.73;;
30519;SDS011;17300;50.374;8.006;2023-01-16T07:18:36;2.60;;;0.97;;
30519;SDS011;17300;50.374;8.006;2023-01-16T07:21:26;1.87;;;0.90;;
30519;SDS011;17300;50.374;8.006;2023-01-16T07:33:32;1.87;;;1.10;;
30519;SDS011;17300;50.374;8.006;2023-01-16T07:35:59;1.50;;;0.70;;
30519;SDS011;17300;50.374;8.006;2023-01-16T07:38:33;3.03;;;0.90;;
30519;SDS011;17300;50.374;8.006;2023-01-16T07:41:00;1.17;;;0.80;;
30519;SDS011;17300;50.374;8.006;2023-01-16T07:43:27;3.70;;;0.90;;
30519;SDS011;17300;50.374;8.006;2023-01-16T07:45:53;2.03;;;0.80;;
30519;SDS011;17300;50.374;8.006;2023-01-16T07:48:22;1.80;;;0.70;;
30519;SDS011;17300;50.374;8.006;2023-01-16T07:50:49;2.17;;;0.77;;
30519;SDS011;17300;50.374;8.006;2023-01-16T07:53:17;1.37;;;0.80;;
30519;SDS011;17300;50.374;8.006;2023-01-16T07:55:46;2.53;;;0.80;;
30519;SDS011;17300;50.374;8.006;2023-01-16T07:58:14;1.40;;;0.90;;
30519;SDS011;17300;50.374;8.006;2023-01-16T08:00:41;1.80;;;0.73;;
30519;SDS011;17300;50.374;8.006;2023-01-16T08:03:08;4.37;;;0.77;;
30519;SDS011;17300;50.374;8.006;2023-01-16T08:05:36;0.40;;;0.40;;
30519;SDS011;17300;50.374;8.006;2023-01-16T08:08:03;3.03;;;1.00;;
30519;SDS011;17300;50.374;8.006;2023-01-16T08:10:30;1.83;;;0.73;;
30519;SDS011;17300;50.374;8.006;2023-01-16T08:12:57;1.67;;;0.90;;
30519;SDS011;17300;50.374;8.006;2023-01-16T08:15:23;2.10;;;0.90;;
30519;SDS011;17300;50.374;8.006;2023-01-16T08:17:50;2.77;;;0.93;;
30519;SDS011;17300;50.374;8.006;2023-01-16T08:20:17;1.10;;;0.60;;
30519;SDS011;17300;50.374;8.006;2023-01-16T08:22:45;2.60;;;0.70;;
30519;SDS011;17300;50.374;8.006;2023-01-16T08:25:15;2.23;;;0.87;;
30519;SDS011;17300;50.374;8.006;2023-01-16T08:27:43;2.23;;;0.90;;
30519;SDS011;17300;50.374;8.006;2023-01-16T08:30:10;2.33;;;0.97;;
30519;SDS011;17300;50.374;8.006;2023-01-16T08:32:38;0.87;;;0.67;;
30519;SDS011;17300;50.374;8.006;2023-01-16T08:35:05;2.30;;;0.93;;
30519;SDS011;17300;50.374;8.006;2023-01-16T08:37:32;2.37;;;0.80;;
30519;SDS011;17300;50.374;8.006;2023-01-16T08:40:01;2.30;;;0.97;;
30519;SDS011;17300;50.374;8.006;2023-01-16T08:42:29;1.80;;;0.83;;
30519;SDS011;17300;50.374;8.006;2023-01-16T08:45:13;0.93;;;0.70;;
30519;SDS011;17300;50.374;8.006;2023-01-16T08:47:54;2.30;;;0.70;;
30519;SDS011;17300;50.374;8.006;2023-01-16T08:50:38;2.17;;;0.80;;
30519;SDS011;17300;50.374;8.006;2023-01-16T08:53:23;2.40;;;1.00;;
30519;SDS011;17300;50.374;8.006;2023-01-16T08:55:51;0.83;;;0.50;;
30519;SDS011;17300;50.374;8.006;2023-01-16T08:58:18;1.13;;;0.60;;
30519;SDS011;17300;50.374;8.006;2023-01-16T09:00:45;1.00;;;0.50;;
30519;SDS011;17300;50.374;8.006;2023-01-16T09:03:12;1.40;;;0.70;;
30519;SDS011;17300;50.374;8.006;2023-01-16T09:05:41;1.50;;;0.90;;
30519;SDS011;17300;50.374;8.006;2023-01-16T09:08:08;1.90;;;1.00;;
30519;SDS011;17300;50.374;8.006;2023-01-16T09:10:35;1.23;;;0.80;;
30519;SDS011;17300;50.374;8.006;2023-01-16T09:13:03;0.97;;;0.50;;
30519;SDS011;17300;50.374;8.006;2023-01-16T09:15:47;1.27;;;0.60;;
30519;SDS011;17300;50.374;8.006;2023-01-16T09:18:14;0.90;;;0.60;;
30519;SDS011;17300;50.374;8.006;2023-01-16T09:20:41;1.70;;;0.60;;
30519;SDS011;17300;50.374;8.006;2023-01-16T09:23:07;0.73;;;0.50;;
30519;SDS011;17300;50.374;8.006;2023-01-16T09:25:34;0.67;;;0.50;;
30519;SDS011;17300;50.374;8.006;2023-01-16T09:28:02;1.60;;;0.70;;
30519;SDS011;17300;50.374;8.006;2023-01-16T09:30:29;0.90;;;0.80;;
30519;SDS011;17300;50.374;8.006;2023-01-16T09:32:56;1.00;;;0.80;;
30519;SDS011;17300;50.374;8.006;2023-01-16T09:35:23;0.87;;;0.50;;
30519;SDS011;17300;50.374;8.006;2023-01-16T09:37:49;0.50;;;0.50;;
30519;SDS011;17300;50.374;8.006;2023-01-16T09:40:17;0.80;;;0.57;;
30519;SDS011;17300;50.374;8.006;2023-01-16T09:42:58;1.00;;;0.60;;
30519;SDS011;17300;50.374;8.006;2023-01-16T09:46:00;2.20;;;0.80;;
30519;SDS011;17300;50.374;8.006;2023-01-16T09:48:31;1.03;;;0.60;;
30519;SDS011;17300;50.374;8.006;2023-01-16T09:51:02;1.17;;;0.60;;
30519;SDS011;17300;50.374;8.006;2023-01-16T09:53:33;0.80;;;0.70;;
30519;SDS011;17300;50.374;8.006;2023-01-16T09:56:24;0.70;;;0.60;;
30519;SDS011;17300;50.374;8.006;2023-01-16T09:59:19;0.97;;;0.50;;
30519;SDS011;17300;50.374;8.006;2023-01-16T10:01:50;1.13;;;0.70;;
30519;SDS011;17300;50.374;8.006;2023-01-16T10:04:21;1.80;;;0.70;;
30519;SDS011;17300;50.374;8.006;2023-01-16T10:06:52;1.87;;;0.77;;
30519;SDS011;17300;50.374;8.006;2023-01-16T10:09:31;0.63;;;0.57;;
30519;SDS011;17300;50.374;8.006;2023-01-16T10:12:03;0.80;;;0.60;;
30519;SDS011;17300;50.374;8.006;2023-01-16T10:14:40;1.07;;;0.70;;
30519;SDS011;17300;50.374;8.006;2023-01-16T10:17:20;1.23;;;0.70;;
30519;SDS011;17300;50.374;8.006;2023-01-16T10:20:04;0.77;;;0.70;;
30519;SDS011;17300;50.374;8.006;2023-01-16T10:22:53;1.07;;;0.70;;
30519;SDS011;17300;50.374;8.006;2023-01-16T10:25:29;0.70;;;0.60;;
30519;SDS011;17300;50.374;8.006;2023-01-16T10:28:07;2.03;;;0.70;;
30519;SDS011;17300;50.374;8.006;2023-01-16T10:30:46;1.10;;;0.57;;
30519;SDS011;17300;50.374;8.006;2023-01-16T10:33:18;0.70;;;0.50;;
30519;SDS011;17300;50.374;8.006;2023-01-16T10:35:52;0.80;;;0.60;;
30519;SDS011;17300;50.374;8.006;2023-01-16T10:38:21;2.60;;;0.60;;
30519;SDS011;17300;50.374;8.006;2023-01-16T10:41:03;0.83;;;0.60;;
30519;SDS011;17300;50.374;8.006;2023-01-16T10:43:50;1.00;;;0.67;;
30519;SDS011;17300;50.374;8.006;2023-01-16T10:46:37;1.03;;;0.70;;
30519;SDS011;17300;50.374;8.006;2023-01-16T10:49:36;0.80;;;0.50;;
30519;SDS011;17300;50.374;8.006;2023-01-16T10:52:03;0.47;;;0.43;;
30519;SDS011;17300;50.374;8.006;2023-01-16T10:54:31;0.70;;;0.50;;
30519;SDS011;17300;50.374;8.006;2023-01-16T10:56:57;0.67;;;0.60;;
30519;SDS011;17300;50.374;8.006;2023-01-16T10:59:28;0.53;;;0.50;;
30519;SDS011;17300;50.374;8.006;2023-01-16T11:02:00;1.13;;;0.60;;
30519;SDS011;17300;50.374;8.006;2023-01-16T11:04:38;0.90;;;0.80;;
30519;SDS011;17300;50.374;8.006;2023-01-16T11:07:12;0.73;;;0.73;;
30519;SDS011;17300;50.374;8.006;2023-01-16T11:09:42;0.80;;;0.80;;
30519;SDS011;17300;50.374;8.006;2023-01-16T11:12:09;1.03;;;0.70;;
30519;SDS011;17300;50.374;8.006;2023-01-16T11:15:00;0.90;;;0.70;;
30519;SDS011;17300;50.374;8.006;2023-01-16T11:17:51;1.77;;;0.60;;
30519;SDS011;17300;50.374;8.006;2023-01-16T11:20:36;0.77;;;0.60;;
30519;SDS011;17300;50.374;8.006;2023-01-16T11:23:05;0.70;;;0.60;;
30519;SDS011;17300;50.374;8.006;2023-01-16T11:25:42;0.60;;;0.60;;
30519;SDS011;17300;50.374;8.006;2023-01-16T11:28:10;1.13;;;0.77;;
30519;SDS011;17300;50.374;8.006;2023-01-16T11:30:43;0.97;;;0.70;;
30519;SDS011;17300;50.374;8.006;2023-01-16T11:33:15;1.40;;;0.70;;
30519;SDS011;17300;50.374;8.006;2023-01-16T11:35:47;0.70;;;0.50;;
30519;SDS011;17300;50.374;8.006;2023-01-16T11:38:18;0.83;;;0.50;;
30519;SDS011;17300;50.374;8.006;2023-01-16T11:40:46;0.60;;;0.50;;
30519;SDS011;17300;50.374;8.006;2023-01-16T11:43:15;0.57;;;0.47;;
30519;SDS011;17300;50.374;8.006;2023-01-16T11:46:04;0.57;;;0.40;;
30519;SDS011;17300;50.374;8.006;2023-01-16T11:48:39;0.77;;;0.50;;
30519;SDS011;17300;50.374;8.006;2023-01-16T11:51:11;1.20;;;0.77;;
30519;SDS011;17300;50.374;8.006;2023-01-16T11:53:46;1.20;;;0.60;;
30519;SDS011;17300;50.374;8.006;2023-01-16T11:56:23;0.73;;;0.50;;
30519;SDS011;17300;50.374;8.006;2023-01-16T11:59:07;0.90;;;0.50;;
30519;SDS011;17300;50.374;8.006;2023-01-16T12:01:47;0.90;;;0.50;;
30519;SDS011;17300;50.374;8.006;2023-01-16T12:04:42;0.67;;;0.50;;
30519;SDS011;17300;50.374;8.006;2023-01-16T12:07:38;0.70;;;0.50;;
30519;SDS011;17300;50.374;8.006;2023-01-16T12:10:14;0.60;;;0.50;;
30519;SDS011;17300;50.374;8.006;2023-01-16T12:12:55;0.50;;;0.50;;
30519;SDS011;17300;50.374;8.006;2023-01-16T12:15:49;1.03;;;0.70;;
30519;SDS011;17300;50.374;8.006;2023-01-16T12:18:34;0.83;;;0.60;;
30519;SDS011;17300;50.374;8.006;2023-01-16T12:21:14;0.53;;;0.50;;
30519;SDS011;17300;50.374;8.006;2023-01-16T12:23:58;0.70;;;0.67;;
30519;SDS011;17300;50.374;8.006;2023-01-16T12:26:42;1.47;;;0.47;;
30519;SDS011;17300;50.374;8.006;2023-01-16T12:29:20;1.03;;;0.70;;
30519;SDS011;17300;50.374;8.006;2023-01-16T12:32:10;0.83;;;0.60;;
30519;SDS011;17300;50.374;8.006;2023-01-16T12:34:58;0.83;;;0.77;;
30519;SDS011;17300;50.374;8.006;2023-01-16T12:38:02;1.17;;;0.60;;
30519;SDS011;17300;50.374;8.006;2023-01-16T12:40:37;1.00;;;0.70;;
30519;SDS011;17300;50.374;8.006;2023-01-16T12:43:19;1.40;;;0.70;;
30519;SDS011;17300;50.374;8.006;2023-01-16T12:45:54;0.97;;;0.87;;
30519;SDS011;17300;50.374;8.006;2023-01-16T12:48:36;0.80;;;0.70;;
30519;SDS011;17300;50.374;8.006;2023-01-16T12:51:14;1.13;;;0.60;;
30519;SDS011;17300;50.374;8.006;2023-01-16T12:54:04;0.70;;;0.70;;
30519;SDS011;17300;50.374;8.006;2023-01-16T12:56:52;0.70;;;0.63;;
30519;SDS011;17300;50.374;8.006;2023-01-16T12:59:34;0.53;;;0.53;;
30519;SDS011;17300;50.374;8.006;2023-01-16T13:02:08;1.20;;;0.70;;
30519;SDS011;17300;50.374;8.006;2023-01-16T13:04:42;0.70;;;0.63;;
30519;SDS011;17300;50.374;8.006;2023-01-16T13:07:13;0.70;;;0.70;;
30519;SDS011;17300;50.374;8.006;2023-01-16T13:09:44;0.60;;;0.60;;
30519;SDS011;17300;50.374;8.006;2023-01-16T13:12:14;0.87;;;0.70;;
30519;SDS011;17300;50.374;8.006;2023-01-16T13:15:04;0.60;;;0.60;;
30519;SDS011;17300;50.374;8.006;2023-01-16T13:17:38;0.63;;;0.63;;
30519;SDS011;17300;50.374;8.006;2023-01-16T13:20:10;1.30;;;0.70;;
30519;SDS011;17300;50.374;8.006;2023-01-16T13:22:41;0.93;;;0.80;;
30519;SDS011;17300;50.374;8.006;2023-01-16T13:25:17;1.33;;;1.00;;
30519;SDS011;17300;50.374;8.006;2023-01-16T13:27:48;1.43;;;0.90;;
30519;SDS011;17300;50.374;8.006;2023-01-16T13:30:19;1.20;;;1.07;;
30519;SDS011;17300;50.374;8.006;2023-01-16T13:32:48;0.70;;;0.70;;
30519;SDS011;17300;50.374;8.006;2023-01-16T13:35:20;0.70;;;0.53;;
30519;SDS011;17300;50.374;8.006;2023-01-16T13:37:54;0.70;;;0.70;;
30519;SDS011;17300;50.374;8.006;2023-01-16T13:40:55;0.73;;;0.70;;
30519;SDS011;17300;50.374;8.006;2023-01-16T13:43:42;1.93;;;0.70;;
30519;SDS011;17300;50.374;8.006;2023-01-16T13:46:30;1.33;;;0.90;;
30519;SDS011;17300;50.374;8.006;2023-01-16T13:48:59;1.07;;;0.93;;
30519;SDS011;17300;50.374;8.006;2023-01-16T13:51:28;0.67;;;0.67;;
30519;SDS011;17300;50.374;8.006;2023-01-16T13:53:55;1.13;;;0.80;;
30519;SDS011;17300;50.374;8.006;2023-01-16T13:56:26;0.70;;;0.70;;
30519;SDS011;17300;50.374;8.006;2023-01-16T13:58:55;0.77;;;0.73;;
30519;SDS011;17300;50.374;8.006;2023-01-16T14:01:29;1.13;;;0.70;;
30519;SDS011;17300;50.374;8.006;2023-01-16T14:04:15;0.97;;;0.73;;
30519;SDS011;17300;50.374;8.006;2023-01-16T14:06:53;1.60;;;0.80;;
30519;SDS011;17300;50.374;8.006;2023-01-16T14:13:00;0.70;;;0.70;;
30519;SDS011;17300;50.374;8.006;2023-01-16T14:15:43;2.00;;;0.70;;
30519;SDS011;17300;50.374;8.006;2023-01-16T14:18:36;0.60;;;0.60;;
30519;SDS011;17300;50.374;8.006;2023-01-16T14:21:09;0.63;;;0.63;;
30519;SDS011;17300;50.374;8.006;2023-01-16T14:23:42;0.83;;;0.70;;
30519;SDS011;17300;50.374;8.006;2023-01-16T14:26:34;0.60;;;0.60;;
30519;SDS011;17300;50.374;8.006;2023-01-16T14:29:10;0.83;;;0.70;;
30519;SDS011;17300;50.374;8.006;2023-01-16T14:31:42;1.10;;;0.90;;
30519;SDS011;17300;50.374;8.006;2023-01-16T14:34:16;1.00;;;0.90;;
30519;SDS011;17300;50.374;8.006;2023-01-16T14:36:46;1.03;;;0.90;;
30519;SDS011;17300;50.374;8.006;2023-01-16T14:39:26;1.10;;;0.90;;
30519;SDS011;17300;50.374;8.006;2023-01-16T14:41:56;2.10;;;0.90;;
30519;SDS011;17300;50.374;8.006;2023-01-16T14:48:15;1.73;;;0.70;;
30519;SDS011;17300;50.374;8.006;2023-01-16T14:51:16;1.43;;;0.70;;
30519;SDS011;17300;50.374;8.006;2023-01-16T14:54:09;0.63;;;0.50;;
30519;SDS011;17300;50.374;8.006;2023-01-16T14:56:57;0.50;;;0.40;;
30519;SDS011;17300;50.374;8.006;2023-01-16T14:59:29;0.60;;;0.60;;
30519;SDS011;17300;50.374;8.006;2023-01-16T15:02:02;0.83;;;0.80;;
30519;SDS011;17300;50.374;8.006;2023-01-16T15:04:49;1.00;;;0.90;;
30519;SDS011;17300;50.374;8.006;2023-01-16T15:07:19;0.90;;;0.70;;
30519;SDS011;17300;50.374;8.006;2023-01-16T15:09:51;0.60;;;0.50;;
30519;SDS011;17300;50.374;8.006;2023-01-16T15:12:19;0.70;;;0.60;;
30519;SDS011;17300;50.374;8.006;2023-01-16T15:14:51;0.50;;;0.50;;
30519;SDS011;17300;50.374;8.006;2023-01-16T15:17:22;0.63;;;0.60;;
30519;SDS011;17300;50.374;8.006;2023-01-16T15:20:21;0.50;;;0.50;;
30519;SDS011;17300;50.374;8.006;2023-01-16T15:23:15;0.50;;;0.50;;
30519;SDS011;17300;50.374;8.006;2023-01-16T15:25:53;0.50;;;0.50;;
30519;SDS011;17300;50.374;8.006;2023-01-16T15:28:33;0.80;;;0.60;;
30519;SDS011;17300;50.374;8.006;2023-01-16T15:31:06;0.53;;;0.53;;
30519;SDS011;17300;50.374;8.006;2023-01-16T15:33:36;0.80;;;0.60;;
30519;SDS011;17300;50.374;8.006;2023-01-16T15:36:16;0.60;;;0.60;;
30519;SDS011;17300;50.374;8.006;2023-01-16T15:38:46;0.70;;;0.50;;
30519;SDS011;17300;50.374;8.006;2023-01-16T15:41:13;0.80;;;0.70;;
30519;SDS011;17300;50.374;8.006;2023-01-16T15:43:44;1.10;;;0.70;;
30519;SDS011;17300;50.374;8.006;2023-01-16T15:46:30;0.70;;;0.70;;